Other Surface Observations
Issued by NWS Missoula, MT

Home | Current Version | Previous Version | Text Only | Print | Product List | Glossary On
Versions: 1 2 3 4 5 6 7 8 9 10 11 12 13 14 15 16 17 18 19 20 21 22 23 24 25 26 27 28 29 30 31 32 33 34 35 36 37 38 39 40 41 42 43 44 45 46 47 48 49 50
743
SXUS55 KMSO 240813
OSOMSO
MONTANA AWOS SUMMARY
NATIONAL WEATHER SERVICE MISSOULA MT
213 AM MDT TUE MAY 24 2016

Montana AWOS Reports

EKALAKA     |K97M 240755Z AUTO 00000KT 40SM 07/01 A2986 RMK AO1 T00720006
TWIN BRIDGES|K7S1 240755Z AUTO 00000KT 40SM 05/02 A2991 RMK AO1 T00500017
ROUNDUP     |KRPX 240755Z AUTO 00000KT 40SM 08/02 A2980 RMK AO1 T00830022
LAUREL      |K6S8 240755Z AUTO 00000KT 40SM 09/04 A2989 RMK AO1 T00890039




USA.gov is the U.S. government's official web portal to all federal, state and local government web resources and services.